Time;durP1;ratioP1;P1;durP2;ratioP2;P2;SDS_P1;SDS_P2;PMS_P1;PMS_P2;Temp;Humidity;BMP_temperature;BMP_pressure;BME280_temperature;BME280_humidity;BME280_pressure;Samples;Min_cycle;Max_cycle;Signal;HPM_P1;HPM_P2
2023/02/13 00:00:14;;;;;;;10.77;7.97;;;6.60;69.00;;;;;;6244667;23;20003;-63
2023/02/13 00:02:39;;;;;;;13.97;8.17;;;6.60;69.00;;;;;;6244591;23;20032;-63
2023/02/13 00:05:06;;;;;;;14.30;9.10;;;6.60;69.10;;;;;;6244762;23;20004;-63
2023/02/13 00:07:31;;;;;;;13.43;8.27;;;6.60;69.10;;;;;;6244819;23;20083;-62
2023/02/13 00:09:57;;;;;;;12.87;7.70;;;6.60;69.10;;;;;;6244860;23;20042;-62
2023/02/13 00:12:22;;;;;;;12.33;8.37;;;6.60;69.00;;;;;;6244768;23;20007;-63
2023/02/13 00:14:48;;;;;;;12.97;7.70;;;6.60;69.20;;;;;;6244968;23;20031;-63
2023/02/13 00:17:14;;;;;;;13.50;8.30;;;6.50;69.10;;;;;;6244882;23;20008;-62
2023/02/13 00:19:39;;;;;;;20.47;10.00;;;6.50;69.30;;;;;;6244927;23;19996;-63
2023/02/13 00:22:05;;;;;;;27.50;14.80;;;6.50;69.10;;;;;;6244894;23;20008;-62
2023/02/13 00:24:31;;;;;;;14.50;9.77;;;6.50;68.90;;;;;;6245218;23;20000;-62
2023/02/13 00:26:56;;;;;;;20.33;11.33;;;6.40;68.90;;;;;;6244748;23;20413;-62
2023/02/13 00:29:22;;;;;;;29.60;17.07;;;6.40;68.90;;;;;;6245040;23;20427;-64
2023/02/13 00:31:48;;;;;;;22.73;13.23;;;6.40;69.00;;;;;;6244825;23;20036;-63
2023/02/13 00:34:13;;;;;;;36.90;19.73;;;6.40;69.00;;;;;;6244793;23;20011;-62
2023/02/13 00:36:39;;;;;;;19.57;11.80;;;6.50;78.40;;;;;;6244747;23;20004;-62
2023/02/13 00:39:04;;;;;;;14.73;10.30;;;6.30;69.10;;;;;;6244908;23;20003;-63
2023/02/13 00:41:30;;;;;;;20.77;11.07;;;6.20;69.10;;;;;;6245030;23;20312;-62
2023/02/13 00:43:56;;;;;;;19.23;11.47;;;6.20;69.00;;;;;;6246829;23;20083;-62
2023/02/13 00:46:21;;;;;;;21.33;12.10;;;6.10;69.20;;;;;;6246471;23;20008;-63
2023/02/13 00:48:47;;;;;;;18.03;11.37;;;6.00;68.80;;;;;;6246777;23;20070;-63
2023/02/13 00:51:13;;;;;;;18.50;11.50;;;6.00;69.00;;;;;;6219530;23;20000;-65
2023/02/13 00:53:39;;;;;;;18.70;11.63;;;5.90;69.40;;;;;;6246761;23;20110;-62
2023/02/13 00:56:06;;;;;;;20.77;12.00;;;5.90;69.50;;;;;;6219856;23;20352;-63
2023/02/13 00:58:32;;;;;;;20.90;12.40;;;5.80;70.40;;;;;;6246567;23;19996;-62
2023/02/13 01:00:58;;;;;;;21.30;12.37;;;5.70;69.90;;;;;;6246620;23;20007;-63
2023/02/13 01:03:25;;;;;;;23.67;13.40;;;5.70;69.90;;;;;;6246498;23;20000;-62
2023/02/13 01:05:51;;;;;;;23.03;13.03;;;5.60;69.90;;;;;;6246378;23;20000;-63
2023/02/13 01:08:18;;;;;;;16.57;10.50;;;5.60;70.20;;;;;;6246200;23;20426;-64
2023/02/13 01:10:46;;;;;;;15.87;9.67;;;5.60;70.60;;;;;;6246591;23;20040;-63
2023/02/13 01:13:12;;;;;;;15.00;9.60;;;5.60;70.80;;;;;;6246428;23;20000;-63
2023/02/13 01:15:39;;;;;;;16.00;9.57;;;5.50;70.80;;;;;;6246029;23;20446;-62
2023/02/13 01:18:04;;;;;;;13.00;8.30;;;5.60;71.10;;;;;;6246021;23;20015;-62
2023/02/13 01:20:30;;;;;;;14.40;9.30;;;5.50;71.40;;;;;;6246039;23;19996;-62
2023/02/13 01:22:56;;;;;;;13.77;8.57;;;5.50;71.30;;;;;;6246384;23;20004;-62
2023/02/13 01:25:23;;;;;;;33.80;15.87;;;5.50;71.50;;;;;;6246280;23;20050;-65
2023/02/13 01:27:49;;;;;;;31.13;13.43;;;5.50;71.60;;;;;;6246009;23;20012;-61
2023/02/13 01:30:17;;;;;;;18.40;10.57;;;5.40;71.50;;;;;;6246097;23;20004;-62
2023/02/13 01:32:43;;;;;;;15.40;8.17;;;5.40;71.80;;;;;;6246297;23;20297;-62
2023/02/13 01:35:11;;;;;;;14.13;8.27;;;5.40;72.10;;;;;;6246403;23;20354;-63
2023/02/13 01:37:38;;;;;;;14.77;9.10;;;5.40;72.00;;;;;;6246124;23;20114;-63
2023/02/13 01:40:04;;;;;;;14.67;9.13;;;5.40;72.30;;;;;;6245693;23;20000;-62
2023/02/13 01:42:32;;;;;;;13.03;8.30;;;5.40;72.20;;;;;;6245827;23;20427;-63
2023/02/13 01:45:00;;;;;;;17.27;9.53;;;5.40;72.50;;;;;;6245827;23;20258;-62
2023/02/13 01:47:42;;;;;;;19.83;10.90;;;5.40;72.50;;;;;;6245573;23;20315;-63
2023/02/13 01:50:23;;;;;;;14.45;8.38;;;5.40;72.70;;;;;;6245996;23;20004;-62
2023/02/13 01:53:06;;;;;;;69.60;31.50;;;5.40;72.70;;;;;;6245676;23;20001;-63
2023/02/13 01:55:34;;;;;;;36.42;19.13;;;5.30;72.50;;;;;;6245990;23;20080;-62
2023/02/13 01:58:10;;;;;;;267.07;215.83;;;5.30;72.30;;;;;;6244202;23;20015;-63
2023/02/13 02:00:37;;;;;;;115.70;85.23;;;5.30;72.50;;;;;;6242387;23;20008;-63
2023/02/13 02:03:13;;;;;;;27.23;19.23;;;5.30;72.30;;;;;;6242428;23;20146;-62
2023/02/13 02:05:39;;;;;;;34.77;24.90;;;5.30;72.30;;;;;;6244905;23;20419;-62
2023/02/13 02:08:09;;;;;;;18.33;11.33;;;5.20;72.40;;;;;;6245703;23;20032;-63
2023/02/13 02:10:35;;;;;;;14.33;9.97;;;5.20;72.10;;;;;;6245721;23;20003;-64
2023/02/13 02:13:04;;;;;;;18.43;9.50;;;5.20;72.00;;;;;;6245531;23;20008;-62
2023/02/13 02:15:30;;;;;;;15.90;10.23;;;5.20;71.80;;;;;;6245386;23;20000;-62
2023/02/13 02:17:56;;;;;;;17.60;10.43;;;5.10;71.90;;;;;;6245500;23;20012;-61
2023/02/13 02:20:24;;;;;;;15.63;9.80;;;5.10;71.90;;;;;;6245261;23;20082;-61
2023/02/13 02:23:18;;;;;;;16.13;10.17;;;5.00;72.10;;;;;;6245354;23;20004;-63
2023/02/13 02:25:55;;;;;;;16.33;10.27;;;5.00;72.40;;;;;;6245439;23;19996;-62
2023/02/13 02:28:59;;;;;;;16.57;10.53;;;5.00;72.40;;;;;;6244868;23;20012;-61
2023/02/13 02:31:52;;;;;;;16.25;9.98;;;4.90;72.50;;;;;;6245726;23;20422;-63
2023/02/13 02:34:42;;;;;;;;;;;4.90;72.70;;;;;;6246081;23;20011;-63
2023/02/13 02:37:17;;;;;;;16.33;9.57;;;4.90;73.40;;;;;;6245256;23;19899;-62
2023/02/13 02:39:53;;;;;;;18.47;9.53;;;4.90;72.80;;;;;;6245731;23;20019;-62
2023/02/13 02:42:28;;;;;;;19.33;9.97;;;4.80;72.80;;;;;;6245330;23;20000;-63
2023/02/13 02:45:18;;;;;;;16.43;9.30;;;4.80;73.10;;;;;;6244945;23;20000;-61
2023/02/13 02:50:45;;;;;;;15.77;9.70;;;4.80;73.30;;;;;;6245188;23;20015;-62
2023/02/13 02:53:32;;;;;;;17.43;10.17;;;4.80;73.20;;;;;;6245391;23;20011;-62
2023/02/13 02:56:15;;;;;;;13.90;8.47;;;4.70;73.30;;;;;;6245430;23;20004;-62
2023/02/13 03:07:21;;;;;;;15.17;8.57;;;4.60;73.80;;;;;;6245125;23;20077;-63
2023/02/13 03:25:00;;;;;;;14.43;8.63;;;4.50;74.60;;;;;;6245201;23;20014;-62
2023/02/13 03:30:32;;;;;;;13.87;8.43;;;4.40;74.30;;;;;;6245296;23;20062;-64
2023/02/13 03:33:12;;;;;;;12.63;8.50;;;4.40;74.50;;;;;;6245039;23;20082;-63
2023/02/13 03:38:45;;;;;;;17.50;9.10;;;4.40;74.40;;;;;;6245187;23;20334;-62
2023/02/13 03:41:18;;;;;;;20.33;9.00;;;4.30;74.50;;;;;;6245073;23;20007;-62
2023/02/13 03:43:44;;;;;;;;;;;;;;;;;;6245591;23;20326;-63
2023/02/13 03:46:10;;;;;;;17.53;9.17;;;4.30;74.10;;;;;;6244800;23;19899;-62
2023/02/13 03:51:39;;;;;;;16.40;8.90;;;4.30;74.70;;;;;;6245150;23;20031;-61
2023/02/13 03:54:17;;;;;;;12.70;8.43;;;4.30;74.60;;;;;;6245100;23;20046;-61
2023/02/13 03:59:32;;;;;;;15.37;8.57;;;4.20;75.10;;;;;;6245123;23;20027;-61
2023/02/13 04:02:06;;;;;;;16.87;8.90;;;4.20;74.80;;;;;;6244769;23;20000;-61
2023/02/13 04:04:39;;;;;;;19.53;9.57;;;4.10;74.70;;;;;;6245305;23;19996;-62
2023/02/13 04:07:28;;;;;;;12.30;8.17;;;4.10;74.80;;;;;;6245080;23;20039;-62
2023/02/13 04:09:55;;;;;;;17.50;8.13;;;4.00;74.90;;;;;;6217597;23;20376;-62
2023/02/13 04:12:56;;;;;;;14.67;8.07;;;4.00;75.30;;;;;;6244861;23;20339;-62
2023/02/13 04:15:45;;;;;;;14.30;8.87;;;4.00;75.90;;;;;;6238546;23;20007;-61
2023/02/13 04:18:19;;;;;;;14.37;7.60;;;4.00;76.10;;;;;;6246823;23;20008;-63
2023/02/13 04:20:45;;;;;;;14.87;8.40;;;4.00;76.20;;;;;;6247147;23;20008;-63
2023/02/13 04:23:12;;;;;;;10.80;7.40;;;4.00;76.40;;;;;;6246935;23;20000;-62
2023/02/13 04:25:42;;;;;;;11.93;7.53;;;4.00;76.60;;;;;;6246997;23;20000;-63
2023/02/13 04:28:08;;;;;;;11.67;6.90;;;4.00;76.70;;;;;;6246793;23;20383;-62
2023/02/13 04:30:33;;;;;;;11.00;7.40;;;4.00;77.10;;;;;;6246628;23;20000;-62
2023/02/13 04:32:59;;;;;;;15.07;7.57;;;4.00;77.20;;;;;;6246506;23;19996;-62
2023/02/13 04:35:25;;;;;;;11.77;7.00;;;4.00;77.30;;;;;;6247010;23;20049;-62
2023/02/13 04:37:50;;;;;;;10.33;6.50;;;4.00;77.30;;;;;;6246807;23;20054;-62
2023/02/13 04:40:16;;;;;;;9.63;6.07;;;4.00;77.30;;;;;;6246737;23;20107;-62
2023/02/13 04:42:42;;;;;;;10.90;6.63;;;4.00;77.50;;;;;;6246854;23;19997;-63
2023/02/13 04:45:08;;;;;;;9.33;6.13;;;4.00;77.60;;;;;;6219823;23;20015;-64
2023/02/13 04:47:34;;;;;;;10.27;6.30;;;4.00;77.80;;;;;;6246736;23;20016;-62
2023/02/13 04:49:59;;;;;;;9.77;5.63;;;4.00;77.90;;;;;;6246779;23;19996;-62
2023/02/13 04:52:25;;;;;;;9.43;5.43;;;4.00;78.00;;;;;;6246478;23;20004;-62
2023/02/13 04:54:51;;;;;;;11.17;6.00;;;4.00;78.10;;;;;;6246572;23;20071;-62
2023/02/13 04:57:16;;;;;;;15.13;6.00;;;4.00;78.50;;;;;;6246930;23;20000;-61
2023/02/13 04:59:42;;;;;;;8.07;5.07;;;4.00;78.60;;;;;;6246898;23;20004;-62
2023/02/13 05:02:08;;;;;;;9.20;5.97;;;4.00;78.80;;;;;;6246570;23;20422;-61
2023/02/13 05:04:33;;;;;;;11.40;5.50;;;4.00;78.80;;;;;;6246650;23;20007;-62
2023/02/13 05:06:59;;;;;;;10.10;5.43;;;4.00;78.80;;;;;;6246771;23;20012;-63
2023/02/13 05:09:25;;;;;;;7.00;4.67;;;4.00;78.50;;;;;;6246707;23;20441;-62
2023/02/13 05:11:52;;;;;;;11.67;6.00;;;4.00;78.50;;;;;;6246642;23;20328;-63
2023/02/13 05:14:18;;;;;;;9.73;5.30;;;4.00;78.50;;;;;;6246193;23;20445;-63
2023/02/13 05:16:43;;;;;;;10.43;5.70;;;3.90;78.40;;;;;;6246793;23;20012;-62
2023/02/13 05:19:09;;;;;;;11.87;5.60;;;3.90;78.40;;;;;;6246191;23;20446;-62
2023/02/13 05:24:19;;;;;;;10.23;5.60;;;3.90;78.50;;;;;;6246598;23;20322;-61
2023/02/13 05:26:44;;;;;;;9.03;5.57;;;3.90;78.70;;;;;;6246166;23;20087;-62
2023/02/13 05:29:19;;;;;;;16.97;6.10;;;3.90;79.00;;;;;;6246167;23;20445;-62
2023/02/13 05:31:51;;;;;;;15.73;6.30;;;3.90;79.00;;;;;;6246823;23;20038;-65
2023/02/13 05:34:17;;;;;;;11.55;5.70;;;3.90;79.00;;;;;;6246423;23;20008;-62
2023/02/13 05:36:43;;;;;;;16.20;6.77;;;3.80;79.10;;;;;;6246439;23;20423;-62
2023/02/13 05:39:09;;;;;;;11.33;5.83;;;3.90;80.00;;;;;;6246318;23;20038;-62
2023/02/13 05:41:35;;;;;;;11.97;6.80;;;3.90;79.60;;;;;;6246348;23;20051;-62
2023/02/13 05:44:01;;;;;;;10.57;6.10;;;3.90;79.50;;;;;;6245991;23;20011;-62
2023/02/13 05:46:26;;;;;;;12.33;5.90;;;3.90;79.60;;;;;;6246009;23;20004;-61
2023/02/13 05:48:52;;;;;;;13.57;6.73;;;3.90;79.70;;;;;;6246337;23;20008;-62
2023/02/13 05:51:18;;;;;;;11.83;5.87;;;3.90;79.50;;;;;;6246116;23;20011;-62
2023/02/13 05:53:44;;;;;;;10.00;6.07;;;3.90;79.50;;;;;;6246199;23;20485;-61
2023/02/13 05:56:09;;;;;;;10.33;5.50;;;3.90;79.50;;;;;;6246276;23;20000;-63
2023/02/13 05:58:35;;;;;;;11.60;6.47;;;3.90;79.60;;;;;;6245984;23;20540;-62
2023/02/13 06:01:01;;;;;;;19.17;7.67;;;3.90;80.50;;;;;;6245692;23;20304;-61
2023/02/13 06:03:28;;;;;;;14.87;7.50;;;3.80;79.90;;;;;;6245536;23;20380;-62
2023/02/13 06:05:55;;;;;;;20.10;9.13;;;3.80;79.60;;;;;;6245854;23;20004;-62
2023/02/13 06:08:22;;;;;;;19.20;9.10;;;3.80;79.50;;;;;;6245966;23;20423;-62
2023/02/13 06:10:48;;;;;;;21.07;9.80;;;3.80;79.50;;;;;;6245939;23;20327;-61
2023/02/13 06:13:14;;;;;;;22.93;11.60;;;3.80;79.40;;;;;;6245551;23;20047;-62
2023/02/13 06:15:40;;;;;;;25.20;12.13;;;3.80;79.40;;;;;;6245999;23;20322;-62
2023/02/13 06:18:06;;;;;;;19.50;10.20;;;3.80;79.20;;;;;;6245562;23;20012;-62
2023/02/13 06:20:32;;;;;;;32.63;8.03;;;3.80;79.10;;;;;;6218806;23;20001;-62
2023/02/13 06:22:58;;;;;;;18.97;8.80;;;3.70;79.10;;;;;;6245996;23;20000;-64
2023/02/13 06:25:23;;;;;;;17.53;8.13;;;3.70;79.10;;;;;;6246032;23;20008;-62
2023/02/13 06:27:49;;;;;;;18.33;7.87;;;3.70;79.00;;;;;;6245706;23;20008;-61
2023/02/13 06:30:16;;;;;;;18.43;7.77;;;3.70;79.10;;;;;;6245818;23;20422;-61
2023/02/13 06:32:42;;;;;;;20.87;7.90;;;3.70;79.20;;;;;;6245583;23;20054;-62
2023/02/13 06:35:08;;;;;;;20.23;7.67;;;3.70;79.20;;;;;;6245839;23;20000;-62
2023/02/13 06:37:34;;;;;;;18.73;8.40;;;3.70;79.10;;;;;;6245993;23;20423;-62
2023/02/13 06:40:00;;;;;;;18.73;8.07;;;3.70;79.10;;;;;;6245422;23;20132;-61
2023/02/13 06:42:25;;;;;;;23.30;8.80;;;3.60;79.50;;;;;;6245511;23;19996;-61
2023/02/13 06:44:51;;;;;;;21.07;9.07;;;3.60;79.70;;;;;;6245113;23;20000;-62
2023/02/13 06:47:17;;;;;;;18.80;8.43;;;3.60;80.00;;;;;;6245400;23;20014;-62
2023/02/13 06:49:42;;;;;;;17.83;8.63;;;3.60;80.10;;;;;;6245564;23;20003;-62
2023/02/13 06:52:08;;;;;;;21.90;8.67;;;3.70;80.00;;;;;;6245538;23;20008;-62
2023/02/13 06:54:34;;;;;;;20.53;8.80;;;3.70;80.10;;;;;;6245078;23;20067;-62
2023/02/13 06:56:59;;;;;;;15.83;7.57;;;3.70;79.70;;;;;;6245437;23;20004;-62
2023/02/13 06:59:25;;;;;;;20.80;7.67;;;3.70;80.10;;;;;;6245163;23;20071;-61
2023/02/13 07:01:50;;;;;;;20.10;7.87;;;3.80;80.50;;;;;;6245591;23;20000;-61
2023/02/13 07:04:16;;;;;;;24.13;8.10;;;3.80;80.60;;;;;;6245382;23;20000;-62
2023/02/13 07:06:42;;;;;;;34.83;9.37;;;3.90;80.80;;;;;;6243900;23;20012;-62
2023/02/13 07:09:07;;;;;;;31.50;8.73;;;3.90;80.80;;;;;;6244419;23;19996;-63
2023/02/13 07:11:33;;;;;;;25.70;8.07;;;4.00;80.70;;;;;;6244829;23;20008;-62
2023/02/13 07:13:59;;;;;;;26.27;9.00;;;4.00;80.50;;;;;;6245060;23;20023;-66
2023/02/13 07:16:24;;;;;;;30.23;9.67;;;4.10;81.00;;;;;;6245091;23;20331;-61
2023/02/13 07:18:50;;;;;;;36.93;9.67;;;4.20;80.80;;;;;;6242583;23;20027;-61
2023/02/13 07:21:17;;;;;;;45.23;11.67;;;4.30;80.40;;;;;;6243549;23;20024;-60
2023/02/13 07:23:42;;;;;;;52.20;13.97;;;4.30;80.10;;;;;;6243919;23;20007;-67
2023/02/13 07:26:09;;;;;;;32.47;14.57;;;4.30;80.00;;;;;;6243985;23;20011;-62
2023/02/13 07:28:35;;;;;;;33.77;16.17;;;4.30;80.00;;;;;;6244534;23;20007;-63
2023/02/13 07:31:05;;;;;;;32.50;14.80;;;4.40;80.00;;;;;;6244754;23;20000;-64
2023/02/13 07:33:32;;;;;;;33.00;15.43;;;4.50;80.40;;;;;;6244003;23;20004;-72
2023/02/13 07:35:57;;;;;;;43.20;17.87;;;4.50;80.50;;;;;;6244197;23;20008;-65
2023/02/13 07:38:23;;;;;;;38.13;16.93;;;4.50;80.30;;;;;;6244569;23;20006;-63
2023/02/13 07:40:48;;;;;;;42.67;18.07;;;4.60;80.40;;;;;;6244578;23;19996;-63
2023/02/13 07:43:14;;;;;;;31.73;15.87;;;4.70;80.50;;;;;;6244210;23;20012;-65
2023/02/13 07:45:40;;;;;;;32.87;15.63;;;4.70;81.00;;;;;;6244046;23;20053;-62
2023/02/13 07:48:05;;;;;;;26.27;13.87;;;4.80;80.40;;;;;;6244025;23;20012;-62
2023/02/13 07:50:31;;;;;;;26.30;13.80;;;4.90;80.60;;;;;;6244551;23;19996;-65
2023/02/13 07:52:59;;;;;;;22.00;13.20;;;5.00;80.60;;;;;;6246384;23;20004;-61
2023/02/13 07:55:26;;;;;;;18.23;11.83;;;5.10;80.80;;;;;;6246141;23;20010;-61
2023/02/13 07:57:52;;;;;;;27.03;11.83;;;5.10;80.80;;;;;;6246169;23;20004;-61
2023/02/13 08:00:18;;;;;;;23.67;13.10;;;5.20;80.80;;;;;;6245881;23;19992;-62
2023/02/13 08:02:44;;;;;;;20.23;12.50;;;5.30;81.00;;;;;;6246199;23;20079;-62
2023/02/13 08:05:10;;;;;;;18.90;12.23;;;5.40;81.20;;;;;;6246286;23;20038;-66
2023/02/13 08:07:36;;;;;;;24.20;12.53;;;5.40;81.50;;;;;;6246448;23;20063;-69
2023/02/13 08:12:47;;;;;;;14.57;9.83;;;;;;;;;;6246331;23;20015;-73
2023/02/13 08:15:14;;;;;;;22.80;11.37;;;5.70;80.50;;;;;;6244888;23;20042;-61
2023/02/13 08:17:40;;;;;;;15.77;10.33;;;5.80;81.00;;;;;;6245879;23;20431;-63
2023/02/13 08:20:07;;;;;;;18.93;10.67;;;5.80;80.70;;;;;;6246432;23;20099;-61
2023/02/13 08:22:33;;;;;;;23.80;10.80;;;5.90;80.70;;;;;;6219111;23;20011;-62
2023/02/13 08:24:59;;;;;;;16.23;10.93;;;6.00;80.40;;;;;;6246055;23;19996;-71
2023/02/13 08:27:26;;;;;;;22.83;11.67;;;6.00;80.30;;;;;;6245660;23;20008;-61
2023/02/13 08:29:52;;;;;;;19.07;10.53;;;6.10;80.40;;;;;;6245798;23;20016;-63
2023/02/13 08:32:18;;;;;;;20.33;10.17;;;6.20;80.30;;;;;;6244743;23;20000;-65
2023/02/13 08:34:43;;;;;;;18.57;11.07;;;6.30;80.30;;;;;;6245183;23;20015;-63
2023/02/13 08:37:09;;;;;;;18.17;9.63;;;6.40;80.20;;;;;;6218343;23;20078;-62
2023/02/13 08:39:35;;;;;;;13.97;9.50;;;6.50;80.00;;;;;;6245405;23;20000;-60
2023/02/13 08:42:00;;;;;;;17.77;9.47;;;6.50;79.50;;;;;;6245769;23;20000;-60
2023/02/13 08:44:26;;;;;;;19.70;9.30;;;6.60;79.00;;;;;;6245883;23;20000;-61
2023/02/13 08:46:52;;;;;;;19.13;10.10;;;6.70;78.90;;;;;;6245749;23;20008;-70
2023/02/13 08:49:18;;;;;;;15.00;9.60;;;;;;;;;;6245870;23;20000;-60
2023/02/13 08:51:43;;;;;;;14.90;9.17;;;6.80;78.20;;;;;;6245944;23;20011;-64
2023/02/13 08:54:09;;;;;;;16.53;9.03;;;6.90;78.20;;;;;;6245794;23;20000;-63
2023/02/13 08:56:35;;;;;;;12.70;7.13;;;7.00;77.70;;;;;;6246060;23;20004;-62
2023/02/13 08:59:00;;;;;;;12.30;6.93;;;7.00;77.30;;;;;;6245529;23;20004;-66
2023/02/13 09:01:26;;;;;;;12.97;6.40;;;7.10;76.90;;;;;;6245975;23;20377;-61
2023/02/13 09:03:51;;;;;;;11.43;5.63;;;7.20;76.50;;;;;;6245388;23;19996;-61
2023/02/13 09:06:17;;;;;;;9.87;5.70;;;7.30;76.10;;;;;;6245061;23;20387;-61
2023/02/13 09:08:43;;;;;;;10.33;6.20;;;7.30;76.30;;;;;;6245291;23;20031;-65
2023/02/13 09:11:09;;;;;;;11.27;6.90;;;7.40;75.40;;;;;;6246079;23;20007;-62
2023/02/13 09:13:36;;;;;;;9.67;5.50;;;7.40;75.70;;;;;;6246382;23;20000;-61
2023/02/13 09:16:03;;;;;;;12.47;5.30;;;7.50;75.60;;;;;;6245636;23;20083;-62
2023/02/13 09:18:29;;;;;;;6.93;4.67;;;7.60;74.80;;;;;;6245937;23;20431;-62
2023/02/13 09:21:00;;;;;;;7.40;4.77;;;7.70;74.40;;;;;;6245869;23;20003;-62
2023/02/13 09:23:26;;;;;;;9.80;5.17;;;7.80;74.20;;;;;;6247080;23;20066;-62
2023/02/13 09:25:52;;;;;;;8.90;5.20;;;7.90;73.70;;;;;;6246344;23;20118;-62
2023/02/13 09:28:18;;;;;;;7.37;4.67;;;7.90;73.10;;;;;;6246201;23;20062;-61
2023/02/13 09:30:43;;;;;;;10.00;4.43;;;8.00;73.10;;;;;;6246184;23;20027;-63
2023/02/13 09:33:11;;;;;;;7.73;4.30;;;8.10;72.70;;;;;;6246203;23;20008;-62
2023/02/13 09:35:40;;;;;;;8.20;5.03;;;8.20;72.00;;;;;;6246314;23;20007;-62
2023/02/13 09:38:05;;;;;;;9.43;4.20;;;8.30;71.30;;;;;;6246043;23;20070;-62
2023/02/13 09:40:43;;;;;;;6.80;4.33;;;8.40;71.20;;;;;;6246086;23;20430;-62
2023/02/13 09:43:37;;;;;;;9.03;3.90;;;8.50;71.40;;;;;;6245909;23;20016;-61
2023/02/13 09:46:24;;;;;;;12.13;4.43;;;8.60;71.00;;;;;;6229485;23;20330;-63
2023/02/13 09:48:54;;;;;;;9.43;4.07;;;8.70;70.00;;;;;;6246142;23;20035;-62
2023/02/13 09:51:22;;;;;;;6.20;3.33;;;8.80;69.30;;;;;;6246295;23;20011;-63
2023/02/13 09:54:03;;;;;;;8.00;4.23;;;8.90;68.70;;;;;;6246460;23;20008;-63
2023/02/13 09:56:59;;;;;;;8.40;3.87;;;9.00;68.50;;;;;;6245912;23;20011;-65
2023/02/13 09:59:43;;;;;;;6.37;3.53;;;9.10;68.40;;;;;;6245908;23;20000;-71
2023/02/13 10:02:17;;;;;;;10.57;3.70;;;9.10;67.60;;;;;;6245865;23;20007;-64
2023/02/13 10:05:07;;;;;;;7.60;3.20;;;9.30;67.30;;;;;;6245701;23;20075;-64
2023/02/13 10:08:08;;;;;;;6.93;3.43;;;9.30;66.90;;;;;;6245836;23;20012;-65
2023/02/13 10:11:11;;;;;;;7.37;3.57;;;9.40;66.20;;;;;;6246125;23;20004;-69
2023/02/13 10:13:51;;;;;;;5.85;3.60;;;9.50;66.10;;;;;;6226506;23;20083;-65
2023/02/13 10:16:21;;;;;;;7.17;3.50;;;9.60;65.80;;;;;;6245736;23;20067;-67
2023/02/13 10:18:54;;;;;;;5.60;3.60;;;9.70;65.70;;;;;;6245729;23;20091;-65
2023/02/13 10:21:25;;;;;;;8.13;4.00;;;9.80;65.40;;;;;;6245568;23;20000;-71
2023/02/13 10:24:09;;;;;;;10.60;3.83;;;9.90;64.80;;;;;;6245880;23;20011;-64
2023/02/13 10:26:47;;;;;;;9.87;3.80;;;9.90;64.40;;;;;;6246333;23;20015;-68
2023/02/13 10:30:30;;;;;;;12.93;3.60;;;10.00;64.20;;;;;;6246068;23;20361;-72
2023/02/13 10:35:43;;;;;;;5.93;3.17;;;10.30;64.00;;;;;;6245838;23;20023;-68
2023/02/13 10:38:15;;;;;;;8.23;3.97;;;10.40;63.60;;;;;;6245906;23;20004;-69
2023/02/13 10:40:56;;;;;;;6.28;3.95;;;10.50;63.40;;;;;;6246080;23;20023;-71
2023/02/13 10:43:27;;;;;;;6.57;3.17;;;10.50;62.80;;;;;;6245776;23;20004;-63
2023/02/13 10:45:59;;;;;;;7.23;3.30;;;10.60;62.80;;;;;;6245541;23;20323;-64
2023/02/13 10:48:42;;;;;;;8.83;3.57;;;10.70;62.10;;;;;;6245529;23;20062;-65
2023/02/13 10:51:22;;;;;;;6.37;3.27;;;10.80;62.20;;;;;;6245499;23;20000;-65
2023/02/13 10:54:18;;;;;;;6.13;3.40;;;10.90;62.00;;;;;;6245669;23;20335;-63
2023/02/13 10:57:23;;;;;;;9.63;3.87;;;11.00;61.50;;;;;;6245454;23;20079;-65
2023/02/13 11:00:01;;;;;;;7.33;3.77;;;11.10;61.20;;;;;;6244143;23;20415;-66
2023/02/13 11:02:35;;;;;;;7.85;4.40;;;11.20;60.90;;;;;;6245264;23;20026;-71
2023/02/13 11:05:15;;;;;;;10.02;3.83;;;11.30;60.30;;;;;;6244659;23;20008;-73
2023/02/13 11:07:43;;;;;;;6.85;4.18;;;11.40;60.20;;;;;;6245081;23;20008;-73
2023/02/13 11:10:20;;;;;;;6.28;3.28;;;11.50;59.80;;;;;;6245037;23;20049;-73
2023/02/13 11:12:47;;;;;;;7.60;3.55;;;11.50;59.50;;;;;;6245068;23;20053;-68
2023/02/13 11:15:29;;;;;;;7.68;3.30;;;11.60;58.90;;;;;;6244766;23;20009;-69
2023/02/13 11:17:58;;;;;;;7.60;3.63;;;11.60;58.60;;;;;;6245138;23;20016;-66
2023/02/13 11:20:32;;;;;;;7.78;3.60;;;11.70;58.70;;;;;;6244904;23;20000;-67
2023/02/13 11:23:29;;;;;;;6.60;3.25;;;11.80;58.50;;;;;;6245020;23;20006;-74
2023/02/13 11:25:57;;;;;;;4.65;3.40;;;11.90;58.50;;;;;;6244497;23;20323;-64
2023/02/13 11:28:23;;;;;;;11.25;3.60;;;12.00;57.80;;;;;;6244893;23;20015;-63
2023/02/13 11:30:49;;;;;;;7.13;3.65;;;12.10;57.70;;;;;;6244819;23;20054;-72
2023/02/13 11:33:26;;;;;;;6.28;3.00;;;12.20;57.10;;;;;;6245450;23;20011;-68
2023/02/13 11:36:09;;;;;;;8.90;3.42;;;12.20;56.90;;;;;;6245228;23;19996;-67
2023/02/13 11:38:35;;;;;;;7.07;3.38;;;12.30;57.40;;;;;;6244704;23;20482;-70
2023/02/13 11:41:03;;;;;;;5.57;3.42;;;12.40;56.60;;;;;;6245016;23;20028;-66
2023/02/13 11:43:34;;;;;;;5.65;3.70;;;12.50;56.50;;;;;;6245207;23;20050;-66
2023/02/13 11:46:24;;;;;;;8.77;3.28;;;12.50;56.10;;;;;;6244964;23;19996;-67
2023/02/13 11:49:04;;;;;;;7.22;3.72;;;12.60;55.40;;;;;;6245278;23;20062;-73
2023/02/13 11:51:45;;;;;;;5.97;3.35;;;12.70;55.40;;;;;;6244917;23;20007;-74
2023/02/13 11:54:29;;;;;;;8.23;3.35;;;12.80;55.50;;;;;;6245063;23;20110;-74
2023/02/13 11:56:57;;;;;;;6.47;3.22;;;12.90;55.50;;;;;;6242873;23;20006;-72
2023/02/13 11:59:31;;;;;;;9.60;3.65;;;13.00;55.60;;;;;;6244778;23;20083;-75
2023/02/13 12:02:19;;;;;;;5.30;2.92;;;13.00;54.60;;;;;;6245068;23;20418;-75
2023/02/13 12:04:46;;;;;;;5.85;3.00;;;13.00;53.70;;;;;;6225602;23;20016;-74
2023/02/13 12:07:23;;;;;;;4.85;2.83;;;13.10;54.30;;;;;;6245136;23;20369;-74
2023/02/13 12:10:17;;;;;;;5.90;2.95;;;13.10;54.40;;;;;;6245334;23;20023;-76
2023/02/13 12:12:55;;;;;;;4.20;3.00;;;13.30;54.30;;;;;;6245142;23;20004;-75
2023/02/13 12:15:23;;;;;;;4.43;2.80;;;13.40;54.30;;;;;;6245038;23;20441;-71
2023/02/13 12:17:58;;;;;;;4.28;2.42;;;13.40;53.80;;;;;;6244805;23;20087;-70
2023/02/13 12:20:26;;;;;;;6.18;3.08;;;13.50;53.90;;;;;;6244945;23;20000;-75
2023/02/13 12:22:57;;;;;;;4.45;2.90;;;13.60;53.60;;;;;;6244771;23;20331;-74
2023/02/13 12:25:34;;;;;;;7.03;3.00;;;13.60;53.10;;;;;;6244973;23;20413;-74
2023/02/13 12:28:20;;;;;;;3.92;2.60;;;13.70;53.00;;;;;;6244983;23;20019;-71
2023/02/13 12:31:07;;;;;;;8.10;2.80;;;13.80;53.10;;;;;;6244816;23;20005;-65
2023/02/13 12:34:01;;;;;;;4.25;2.70;;;13.80;52.90;;;;;;6244997;23;20004;-66
2023/02/13 12:36:57;;;;;;;4.82;3.00;;;13.90;52.50;;;;;;6243326;23;20015;-65
2023/02/13 12:39:27;;;;;;;6.07;2.63;;;14.00;52.10;;;;;;6243334;23;20078;-66
2023/02/13 12:42:11;;;;;;;4.38;2.65;;;14.10;52.10;;;;;;6243229;23;20419;-65
2023/02/13 12:45:15;;;;;;;4.00;2.50;;;14.10;51.50;;;;;;6246418;23;20000;-64
2023/02/13 12:48:09;;;;;;;9.43;2.67;;;14.20;51.10;;;;;;6245693;23;20334;-65
2023/02/13 12:50:34;;;;;;;5.13;2.95;;;14.30;51.00;;;;;;6243374;23;20000;-65
2023/02/13 12:53:20;;;;;;;5.70;2.80;;;14.30;51.20;;;;;;6243861;23;20007;-65
2023/02/13 12:56:11;;;;;;;5.93;3.10;;;14.40;51.00;;;;;;6224547;23;20004;-64
2023/02/13 12:58:48;;;;;;;6.97;2.97;;;14.30;50.20;;;;;;6246378;23;20187;-64
2023/02/13 13:01:14;;;;;;;7.95;3.40;;;14.40;50.50;;;;;;6246328;23;20124;-65
2023/02/13 13:04:01;;;;;;;4.32;3.00;;;14.50;50.70;;;;;;6242671;23;20016;-63
2023/02/13 13:06:51;;;;;;;5.53;3.10;;;14.40;49.60;;;;;;6215259;23;20008;-66
2023/02/13 13:09:38;;;;;;;3.90;2.80;;;14.40;49.20;;;;;;6242741;23;20015;-66
2023/02/13 13:12:25;;;;;;;5.72;3.08;;;14.40;50.00;;;;;;6245573;23;20488;-64
2023/02/13 13:14:54;;;;;;;3.83;2.80;;;14.30;49.10;;;;;;6246287;23;20007;-64
2023/02/13 13:17:57;;;;;;;4.60;2.72;;;14.30;49.80;;;;;;6246560;23;20465;-63
2023/02/13 13:20:31;;;;;;;5.88;2.70;;;14.40;49.80;;;;;;6246263;23;20423;-64
2023/02/13 13:23:18;;;;;;;3.17;2.33;;;14.50;49.70;;;;;;6246191;23;20011;-65
2023/02/13 13:25:52;;;;;;;4.57;3.03;;;14.60;49.30;;;;;;6245959;23;20004;-66
2023/02/13 13:28:24;;;;;;;5.80;2.78;;;14.60;49.40;;;;;;6245545;23;20012;-65
2023/02/13 13:30:52;;;;;;;3.67;2.42;;;14.60;50.00;;;;;;6246466;23;20004;-65
2023/02/13 13:33:24;;;;;;;4.03;2.67;;;14.70;49.70;;;;;;6244134;23;20079;-65
2023/02/13 13:36:27;;;;;;;5.28;2.78;;;14.80;49.20;;;;;;6243505;23;20027;-64
2023/02/13 13:38:59;;;;;;;5.13;2.30;;;14.80;49.30;;;;;;6246025;23;19996;-65
2023/02/13 13:41:25;;;;;;;;;;;14.80;49.40;;;;;;6246441;23;20004;-68
2023/02/13 13:44:03;;;;;;;7.50;2.60;;;14.90;49.80;;;;;;6246083;23;19935;-65
2023/02/13 13:46:52;;;;;;;3.45;2.22;;;14.90;49.40;;;;;;6218956;23;20028;-67
2023/02/13 13:49:45;;;;;;;6.50;2.58;;;14.90;49.00;;;;;;6245804;23;20012;-64
2023/02/13 13:52:29;;;;;;;5.60;2.78;;;14.90;48.70;;;;;;6246006;23;20027;-64
2023/02/13 13:54:59;;;;;;;4.57;2.30;;;15.00;48.50;;;;;;6245594;23;20015;-65
2023/02/13 13:57:39;;;;;;;6.38;2.63;;;15.00;48.60;;;;;;6245752;23;20008;-67